Time;durP1;ratioP1;P1;durP2;ratioP2;P2;SDS_P1;SDS_P2;PMS_P1;PMS_P2;Temp;Humidity;BMP_temperature;BMP_pressure;BME280_temperature;BME280_humidity;BME280_pressure;Samples;Min_cycle;Max_cycle;Signal;HPM_P1;HPM_P2
2023/05/05 00:01:27;;;;;;;3.72;1.42;;;;;;;;;;5045121;28;20963;-83
2023/05/05 00:03:53;;;;;;;3.72;1.92;;;;;;;;;;5042265;28;20398;-83
2023/05/05 00:06:19;;;;;;;5.05;2.05;;;;;;;;;;5048707;28;20897;-82
2023/05/05 00:08:45;;;;;;;2.97;1.70;;;;;;;;;;5046617;28;20397;-82
2023/05/05 00:11:11;;;;;;;5.30;2.03;;;;;;;;;;5048466;28;20877;-82
2023/05/05 00:13:37;;;;;;;3.00;1.55;;;;;;;;;;5044558;28;20759;-83
2023/05/05 00:16:03;;;;;;;4.75;1.90;;;;;;;;;;5049290;28;20424;-82
2023/05/05 00:18:30;;;;;;;3.92;1.88;;;;;;;;;;5045095;28;20421;-82
2023/05/05 00:20:56;;;;;;;3.50;1.50;;;;;;;;;;5047863;28;20418;-83
2023/05/05 00:23:22;;;;;;;3.45;1.80;;;;;;;;;;5035070;28;20429;-83
2023/05/05 00:25:48;;;;;;;2.33;1.50;;;;;;;;;;5044482;28;20543;-82
2023/05/05 00:28:14;;;;;;;3.20;1.73;;;;;;;;;;5035479;28;20401;-84
2023/05/05 00:30:40;;;;;;;4.03;1.90;;;;;;;;;;5035780;28;20467;-83
2023/05/05 00:33:06;;;;;;;4.28;1.75;;;;;;;;;;5048519;28;20901;-83
2023/05/05 00:35:32;;;;;;;4.60;2.22;;;;;;;;;;5054594;28;20397;-80
2023/05/05 00:37:58;;;;;;;4.35;1.90;;;;;;;;;;5059543;28;20392;-81
2023/05/05 00:40:24;;;;;;;5.25;2.20;;;;;;;;;;5064094;28;20425;-83
2023/05/05 00:42:51;;;;;;;3.70;1.88;;;;;;;;;;5034576;28;21598;-82
2023/05/05 00:45:17;;;;;;;6.28;2.28;;;;;;;;;;5041103;28;20762;-82
2023/05/05 00:47:56;;;;;;;5.28;2.35;;;;;;;;;;5038887;28;20419;-84
2023/05/05 00:50:22;;;;;;;6.38;2.80;;;;;;;;;;5039241;28;22458;-83
2023/05/05 00:52:49;;;;;;;4.80;2.30;;;;;;;;;;5039720;28;20429;-82
2023/05/05 00:55:14;;;;;;;3.40;2.38;;;;;;;;;;5037740;28;20415;-82
2023/05/05 00:57:40;;;;;;;4.35;2.33;;;;;;;;;;5038989;28;20443;-83
2023/05/05 01:00:08;;;;;;;6.00;2.67;;;;;;;;;;5035182;28;20854;-81
2023/05/05 01:02:35;;;;;;;3.67;2.25;;;;;;;;;;5032593;28;20432;-81
2023/05/05 01:05:02;;;;;;;3.97;2.30;;;;;;;;;;5040747;28;20493;-81
2023/05/05 01:07:43;;;;;;;5.30;2.83;;;;;;;;;;5040302;28;20407;-82
2023/05/05 01:10:22;;;;;;;4.20;2.28;;;;;;;;;;5042756;28;20838;-82
2023/05/05 01:13:04;;;;;;;4.03;2.30;;;9.60;99.90;;;;;;5043015;28;20747;-82
2023/05/05 01:15:39;;;;;;;3.95;2.22;;;;;;;;;;5037406;28;20413;-81
2023/05/05 01:18:23;;;;;;;4.70;2.60;;;;;;;;;;5040419;28;20435;-82
2023/05/05 01:20:55;;;;;;;3.53;1.85;;;;;;;;;;5045856;28;20458;-81
2023/05/05 01:23:41;;;;;;;3.95;2.00;;;;;;;;;;5043894;28;20427;-82
2023/05/05 01:26:26;;;;;;;4.53;2.58;;;;;;;;;;5044372;28;20932;-80
2023/05/05 01:29:10;;;;;;;6.07;2.70;;;;;;;;;;5044677;28;20508;-81
2023/05/05 01:31:50;;;;;;;4.18;2.65;;;;;;;;;;5042545;28;20445;-82
2023/05/05 01:34:16;;;;;;;5.05;2.53;;;;;;;;;;5038806;28;20407;-83
2023/05/05 01:36:44;;;;;;;4.57;2.58;;;;;;;;;;5047809;28;20401;-81
2023/05/05 01:39:14;;;;;;;4.60;2.65;;;;;;;;;;5046355;28;20509;-82
2023/05/05 01:41:41;;;;;;;4.80;2.30;;;;;;;;;;5044237;28;20991;-83
2023/05/05 01:44:08;;;;;;;3.85;2.28;;;;;;;;;;5046013;28;20399;-83
2023/05/05 01:46:35;;;;;;;6.72;2.67;;;;;;;;;;5044349;28;20402;-84
2023/05/05 01:49:01;;;;;;;4.55;2.53;;;;;;;;;;5037027;28;20414;-82
2023/05/05 01:51:28;;;;;;;4.72;2.50;;;;;;;;;;5037227;28;20411;-83
2023/05/05 01:53:58;;;;;;;6.83;2.73;;;;;;;;;;5044555;28;20812;-83
2023/05/05 01:56:25;;;;;;;4.07;1.90;;;;;;;;;;5054847;28;20429;-83
2023/05/05 01:58:51;;;;;;;5.15;2.17;;;;;;;;;;5053674;28;20397;-82
2023/05/05 02:01:18;;;;;;;6.35;2.10;;;;;;;;;;5047700;28;20417;-82
2023/05/05 02:03:45;;;;;;;4.55;2.20;;;;;;;;;;5038405;28;20424;-82
2023/05/05 02:06:11;;;;;;;6.60;2.88;;;;;;;;;;5038013;28;20432;-81
2023/05/05 02:08:39;;;;;;;4.97;2.63;;;;;;;;;;5032947;28;20421;-83
2023/05/05 02:11:05;;;;;;;4.10;2.60;;;;;;;;;;5040352;28;20417;-82
2023/05/05 02:13:31;;;;;;;3.72;2.22;;;;;;;;;;5030061;28;20433;-82
2023/05/05 02:15:58;;;;;;;5.82;2.60;;;;;;;;;;5036350;28;20405;-82
2023/05/05 02:18:25;;;;;;;6.10;2.67;;;;;;;;;;5037132;28;20441;-82
2023/05/05 02:20:52;;;;;;;4.60;2.50;;;;;;;;;;5031694;28;20398;-81
2023/05/05 02:23:18;;;;;;;5.35;2.75;;;;;;;;;;5031937;28;20984;-81
2023/05/05 02:25:52;;;;;;;5.55;2.65;;;;;;;;;;5040279;28;20411;-83
2023/05/05 02:28:20;;;;;;;4.38;1.83;;;;;;;;;;5036718;28;20433;-81
2023/05/05 02:30:53;;;;;;;4.07;2.20;;;;;;;;;;5040558;28;20405;-81
2023/05/05 02:33:20;;;;;;;4.50;2.05;;;;;;;;;;5037912;28;20880;-82
2023/05/05 02:35:47;;;;;;;5.47;2.50;;;;;;;;;;5036151;28;20410;-82
2023/05/05 02:38:16;;;;;;;6.90;2.67;;;9.80;99.90;;;;;;5037646;28;20818;-82
2023/05/05 02:40:43;;;;;;;5.13;2.53;;;;;;;;;;5031181;28;20526;-81
2023/05/05 02:43:10;;;;;;;3.72;2.38;;;;;;;;;;5038351;28;20433;-80
2023/05/05 02:45:36;;;;;;;4.72;2.15;;;;;;;;;;5035934;28;20395;-83
2023/05/05 02:48:05;;;;;;;6.63;2.83;;;;;;;;;;5038306;28;20472;-83
2023/05/05 02:50:31;;;;;;;3.78;2.13;;;9.50;99.90;;;;;;5039388;28;20428;-82
2023/05/05 02:52:58;;;;;;;4.40;2.30;;;;;;;;;;5038513;28;20413;-82
2023/05/05 02:55:26;;;;;;;4.65;2.33;;;;;;;;;;5041900;28;20943;-83
2023/05/05 02:58:06;;;;;;;6.93;2.60;;;;;;;;;;5040732;28;21004;-81
2023/05/05 03:00:48;;;;;;;5.13;2.90;;;9.70;99.90;;;;;;5042470;28;20413;-82
2023/05/05 03:03:33;;;;;;;4.40;1.92;;;;;;;;;;5040550;28;20679;-81
2023/05/05 03:06:02;;;;;;;4.30;2.20;;;;;;;;;;5035078;28;20423;-83
2023/05/05 03:08:32;;;;;;;4.40;2.63;;;;;;;;;;5032523;28;20399;-81
2023/05/05 03:11:05;;;;;;;6.33;2.50;;;;;;;;;;5036189;28;20453;-83
2023/05/05 03:13:31;;;;;;;4.82;2.50;;;;;;;;;;5031250;28;20406;-82
2023/05/05 03:15:58;;;;;;;7.50;2.47;;;;;;;;;;5038081;28;20413;-83
2023/05/05 03:18:24;;;;;;;4.82;2.75;;;;;;;;;;5040855;28;20397;-84
2023/05/05 03:20:51;;;;;;;6.20;2.58;;;;;;;;;;5034635;28;20446;-82
2023/05/05 03:23:21;;;;;;;6.25;2.65;;;;;;;;;;5034239;28;20421;-82
2023/05/05 03:25:48;;;;;;;5.18;2.47;;;;;;;;;;5042568;28;20437;-82
2023/05/05 03:28:15;;;;;;;2.85;1.80;;;;;;;;;;5039104;28;20812;-82
2023/05/05 03:30:41;;;;;;;5.13;2.30;;;;;;;;;;5032820;28;20936;-83
2023/05/05 03:33:10;;;;;;;4.82;2.42;;;;;;;;;;5035701;28;20919;-82
2023/05/05 03:35:36;;;;;;;4.35;2.28;;;;;;;;;;5032840;28;20919;-83
2023/05/05 03:38:02;;;;;;;3.92;2.20;;;;;;;;;;5037375;28;20447;-81
2023/05/05 03:40:29;;;;;;;5.32;2.03;;;;;;;;;;5039569;28;20409;-82
2023/05/05 03:42:55;;;;;;;5.90;2.10;;;;;;;;;;5025785;28;20502;-82
2023/05/05 03:45:21;;;;;;;7.00;3.15;;;;;;;;;;5038116;28;20836;-84
2023/05/05 03:47:47;;;;;;;6.85;2.90;;;;;;;;;;5044315;28;20505;-82
2023/05/05 03:50:12;;;;;;;6.53;2.50;;;;;;;;;;5036360;28;20411;-81
2023/05/05 03:52:39;;;;;;;5.82;2.63;;;;;;;;;;5038314;28;20499;-81
2023/05/05 03:55:05;;;;;;;6.30;2.55;;;;;;;;;;5037484;28;20433;-81
2023/05/05 03:57:33;;;;;;;6.15;2.70;;;;;;;;;;5034921;28;20495;-83
2023/05/05 03:59:59;;;;;;;5.75;2.88;;;;;;;;;;5035293;28;20409;-82
2023/05/05 04:02:25;;;;;;;4.70;2.70;;;;;;;;;;5036059;28;20459;-80
2023/05/05 04:04:51;;;;;;;7.33;3.00;;;;;;;;;;5033636;28;20416;-83
2023/05/05 04:07:17;;;;;;;6.22;2.45;;;;;;;;;;5036851;28;20507;-82
2023/05/05 04:09:46;;;;;;;3.42;1.98;;;;;;;;;;5037299;28;20418;-82
2023/05/05 04:12:12;;;;;;;7.45;3.03;;;;;;;;;;5036165;28;20840;-80
2023/05/05 04:14:38;;;;;;;5.70;3.10;;;;;;;;;;5036658;28;20387;-82
2023/05/05 04:17:05;;;;;;;7.32;2.90;;;;;;;;;;5049640;28;20453;-83
2023/05/05 04:19:31;;;;;;;6.50;2.95;;;;;;;;;;5039458;28;20487;-82
2023/05/05 04:21:57;;;;;;;4.97;2.67;;;;;;;;;;5042162;28;20427;-83
2023/05/05 04:24:23;;;;;;;10.30;2.80;;;;;;;;;;5051546;28;20405;-83
2023/05/05 04:26:50;;;;;;;5.60;3.20;;;;;;;;;;5036213;28;20397;-81
2023/05/05 04:29:16;;;;;;;5.78;2.60;;;;;;;;;;5044031;28;20405;-81
2023/05/05 04:31:42;;;;;;;7.75;2.70;;;;;;;;;;5034312;28;20956;-82
2023/05/05 04:34:08;;;;;;;5.45;2.00;;;;;;;;;;5020428;28;20409;-83
2023/05/05 04:36:34;;;;;;;4.07;2.37;;;;;;;;;;5021400;28;20408;-80
2023/05/05 04:39:00;;;;;;;4.63;2.83;;;;;;;;;;5025042;28;20926;-82
2023/05/05 04:41:26;;;;;;;7.47;3.00;;;;;;;;;;5039164;28;20409;-83
2023/05/05 04:43:53;;;;;;;5.90;3.38;;;;;;;;;;5032803;28;20433;-82
2023/05/05 04:46:19;;;;;;;6.15;2.92;;;;;;;;;;5043934;28;20398;-83
2023/05/05 04:48:45;;;;;;;4.05;2.47;;;;;;;;;;5042600;28;20405;-84
2023/05/05 04:51:11;;;;;;;4.82;2.58;;;;;;;;;;5046321;28;20397;-79
2023/05/05 04:53:38;;;;;;;5.20;2.65;;;;;;;;;;5052381;28;20029;-81
2023/05/05 04:56:04;;;;;;;7.05;3.47;;;;;;;;;;5042276;28;20475;-81
2023/05/05 04:58:30;;;;;;;4.72;3.00;;;;;;;;;;5042015;28;20900;-82
2023/05/05 05:00:56;;;;;;;6.35;3.42;;;;;;;;;;5040306;28;20894;-83
2023/05/05 05:03:22;;;;;;;4.82;2.65;;;;;;;;;;5031000;28;20430;-82
2023/05/05 05:05:48;;;;;;;4.93;2.60;;;;;;;;;;5043427;28;20410;-81
2023/05/05 05:08:17;;;;;;;7.15;3.47;;;;;;;;;;5042434;28;20029;-82
2023/05/05 05:10:43;;;;;;;;;;;10.60;99.90;;;;;;5042310;28;20566;-81
2023/05/05 05:13:08;;;;;;;;;;;;;;;;;;5043835;28;19944;-82
2023/05/05 05:15:37;;;;;;;;;;;;;;;;;;5044802;28;19916;-80
2023/05/05 05:18:02;;;;;;;;;;;;;;;;;;5045357;28;19920;-81
2023/05/05 05:20:28;;;;;;;;;;;;;;;;;;5043097;28;20375;-81
2023/05/05 05:22:56;;;;;;;;;;;;;;;;;;5038891;28;19927;-82
2023/05/05 05:25:21;;;;;;;;;;;10.90;99.90;;;;;;5042045;28;19908;-82
2023/05/05 05:27:47;;;;;;;;;;;;;;;;;;5046088;28;19924;-81
2023/05/05 05:30:13;;;;;;;;;;;;;;;;;;5035092;28;19913;-82
2023/05/05 05:32:38;;;;;;;;;;;11.20;99.90;;;;;;5047068;28;19917;-84
2023/05/05 05:35:04;;;;;;;;;;;;;;;;;;5047425;28;19909;-81
2023/05/05 05:37:30;;;;;;;;;;;;;;;;;;5042964;28;19908;-80
2023/05/05 05:39:56;;;;;;;;;;;;;;;;;;5047179;28;19915;-81
2023/05/05 05:42:22;;;;;;;;;;;;;;;;;;5046325;28;19920;-81
2023/05/05 05:44:48;;;;;;;;;;;;;;;;;;5045785;28;19912;-82
2023/05/05 05:47:14;;;;;;;;;;;;;;;;;;5043780;28;19909;-82
2023/05/05 05:49:40;;;;;;;5.10;2.60;;;;;;;;;;5045974;28;19927;-81
2023/05/05 05:52:06;;;;;;;6.57;2.65;;;;;;;;;;5045494;28;20063;-82
2023/05/05 05:54:34;;;;;;;7.45;3.35;;;;;;;;;;5048974;28;20120;-82
2023/05/05 05:57:01;;;;;;;5.97;3.45;;;;;;;;;;5042742;28;20052;-81
2023/05/05 05:59:27;;;;;;;5.45;2.65;;;;;;;;;;5041234;28;20024;-81
2023/05/05 06:01:53;;;;;;;9.05;3.28;;;;;;;;;;5046825;28;20505;-82
2023/05/05 06:04:19;;;;;;;6.45;3.13;;;;;;;;;;5034849;28;20407;-81
2023/05/05 06:06:45;;;;;;;6.95;3.50;;;;;;;;;;5038951;28;20086;-81
2023/05/05 06:09:11;;;;;;;9.07;3.40;;;;;;;;;;5034281;28;20025;-81
2023/05/05 06:11:37;;;;;;;4.18;2.30;;;;;;;;;;5047758;28;20029;-81
2023/05/05 06:14:02;;;;;;;7.25;3.05;;;;;;;;;;5045846;28;20039;-84
2023/05/05 06:16:28;;;;;;;5.28;2.60;;;;;;;;;;5042360;28;20638;-83
2023/05/05 06:18:54;;;;;;;6.28;2.63;;;;;;;;;;5045971;28;20021;-83
2023/05/05 06:21:20;;;;;;;7.05;3.30;;;;;;;;;;5045160;28;20029;-81
2023/05/05 06:23:46;;;;;;;5.43;3.08;;;;;;;;;;5043026;28;20446;-82
2023/05/05 06:26:13;;;;;;;7.15;3.08;;;;;;;;;;5044306;28;20430;-81
2023/05/05 06:28:40;;;;;;;3.97;2.22;;;;;;;;;;5049306;28;20041;-81
2023/05/05 06:31:06;;;;;;;4.60;2.90;;;;;;;;;;5041961;28;20033;-83
2023/05/05 06:33:32;;;;;;;4.63;2.45;;;;;;;;;;5044615;28;20017;-83
2023/05/05 06:35:58;;;;;;;6.57;2.72;;;;;;;;;;5044269;28;20029;-84
2023/05/05 06:38:24;;;;;;;3.45;2.08;;;;;;;;;;5041278;28;20060;-83
2023/05/05 06:40:50;;;;;;;4.47;1.70;;;;;;;;;;5049325;28;20025;-82
2023/05/05 06:43:16;;;;;;;3.28;1.80;;;20.10;99.90;;;;;;5036308;28;20045;-84
2023/05/05 06:45:42;;;;;;;2.95;1.58;;;;;;;;;;5037117;28;20694;-81
2023/05/05 06:48:08;;;;;;;2.63;1.35;;;;;;;;;;5045735;28;20040;-82
2023/05/05 06:50:34;;;;;;;2.88;1.27;;;;;;;;;;5043447;28;20029;-81
2023/05/05 06:53:00;;;;;;;2.60;1.70;;;;;;;;;;5043327;28;20167;-83
2023/05/05 06:55:26;;;;;;;2.80;1.63;;;;;;;;;;5045456;28;20111;-84
2023/05/05 06:57:52;;;;;;;4.70;1.80;;;;;;;;;;5044813;28;20505;-85
2023/05/05 07:00:18;;;;;;;7.80;2.20;;;;;;;;;;5040888;28;20179;-84
2023/05/05 07:02:46;;;;;;;3.63;1.27;;;;;;;;;;5036154;28;20044;-83
2023/05/05 07:05:12;;;;;;;4.60;1.80;;;;;;;;;;5038926;28;20040;-83
2023/05/05 07:07:38;;;;;;;3.40;1.77;;;;;;;;;;5035382;28;20521;-85
2023/05/05 07:10:04;;;;;;;8.88;6.53;;;;;;;;;;5043256;28;20014;-83
2023/05/05 07:12:30;;;;;;;4.88;2.42;;;;;;;;;;5046799;28;20036;-82
2023/05/05 07:14:56;;;;;;;3.83;2.10;;;;;;;;;;5045443;28;20047;-83
2023/05/05 07:17:22;;;;;;;6.07;2.20;;;;;;;;;;5050049;28;20035;-81
2023/05/05 07:19:48;;;;;;;3.03;1.88;;;;;;;;;;5047733;28;20104;-84
2023/05/05 07:22:14;;;;;;;5.82;2.70;;;;;;;;;;5044552;28;20079;-84
2023/05/05 07:24:40;;;;;;;13.05;2.75;;;;;;;;;;5044653;28;20037;-83
2023/05/05 07:27:06;;;;;;;5.50;2.60;;;;;;;;;;5040385;28;20917;-80
2023/05/05 07:29:32;;;;;;;4.28;2.28;;;;;;;;;;5039128;28;20037;-83
2023/05/05 07:31:58;;;;;;;4.22;2.72;;;;;;;;;;5055871;28;20036;-82
2023/05/05 07:34:24;;;;;;;4.00;2.13;;;;;;;;;;5053940;28;20045;-80
2023/05/05 07:36:50;;;;;;;3.40;2.03;;;;;;;;;;5066878;28;20013;-82
2023/05/05 07:39:18;;;;;;;7.18;3.17;;;;;;;;;;5064432;28;20120;-82
2023/05/05 07:41:44;;;;;;;5.03;2.60;;;;;;;;;;5038650;28;20231;-82
2023/05/05 07:44:10;;;;;;;7.35;3.30;;;;;;;;;;5039371;28;20029;-82
2023/05/05 07:46:36;;;;;;;6.05;2.28;;;;;;;;;;5037933;28;20071;-82
2023/05/05 07:49:02;;;;;;;3.25;1.55;;;;;;;;;;5046414;28;20108;-82
2023/05/05 07:51:28;;;;;;;5.40;2.00;;;;;;;;;;5037548;28;20028;-83
2023/05/05 07:53:54;;;;;;;5.28;2.10;;;;;;;;;;5037394;28;20025;-83
2023/05/05 07:56:20;;;;;;;5.53;2.60;;;;;;;;;;5046999;28;20040;-82
2023/05/05 07:58:46;;;;;;;4.63;2.60;;;;;;;;;;5041785;28;20025;-83
2023/05/05 08:01:12;;;;;;;14.95;3.42;;;;;;;;;;5036947;28;20044;-82
2023/05/05 08:03:38;;;;;;;4.57;2.83;;;;;;;;;;5046318;28;20033;-81
2023/05/05 08:06:08;;;;;;;6.53;2.50;;;;;;;;;;5046149;28;20029;-82
2023/05/05 08:08:34;;;;;;;4.13;2.25;;;;;;;;;;5042686;28;20017;-81
2023/05/05 08:11:00;;;;;;;4.95;2.95;;;;;;;;;;5039760;28;20017;-82
2023/05/05 08:13:27;;;;;;;13.30;3.72;;;;;;;;;;5037706;28;20124;-82
2023/05/05 08:15:52;;;;;;;5.57;2.92;;;;;;;;;;5040867;28;20021;-82
2023/05/05 08:18:18;;;;;;;5.15;1.85;;;;;;;;;;5042943;28;20253;-84
2023/05/05 08:20:45;;;;;;;22.85;4.85;;;;;;;;;;5048005;28;20032;-82
2023/05/05 08:23:11;;;;;;;8.45;2.42;;;;;;;;;;5041660;28;20048;-80
2023/05/05 08:25:37;;;;;;;14.38;4.50;;;;;;;;;;5049552;28;20017;-81
2023/05/05 08:28:03;;;;;;;4.70;2.55;;;;;;;;;;5047427;28;20014;-83
2023/05/05 08:30:29;;;;;;;6.50;1.90;;;;;;;;;;5049784;28;20033;-84
2023/05/05 08:32:55;;;;;;;33.50;4.50;;;;;;;;;;5048362;28;20481;-82
2023/05/05 08:35:21;;;;;;;9.07;3.10;;;;;;;;;;5048471;28;20033;-82
2023/05/05 08:37:47;;;;;;;3.90;2.15;;;;;;;;;;5047591;28;20060;-84
2023/05/05 08:40:14;;;;;;;2.63;1.30;;;;;;;;;;5052432;28;20379;-82
2023/05/05 08:42:40;;;;;;;3.30;1.40;;;;;;;;;;5049125;28;20037;-82
2023/05/05 08:45:07;;;;;;;3.83;1.63;;;30.70;67.90;;;;;;5050493;28;20071;-83
2023/05/05 08:47:34;;;;;;;3.20;1.23;;;;;;;;;;5046713;28;20059;-84
2023/05/05 08:50:00;;;;;;;2.40;1.45;;;;;;;;;;5050717;28;20363;-81
2023/05/05 08:52:28;;;;;;;3.30;1.48;;;;;;;;;;5050504;28;20466;-81
2023/05/05 08:54:56;;;;;;;3.22;1.17;;;;;;;;;;5055013;28;20040;-85
2023/05/05 08:57:51;;;;;;;3.60;1.42;;;33.00;57.30;;;;;;5052437;28;20108;-84
2023/05/05 09:00:18;;;;;;;2.40;1.42;;;33.90;54.50;;;;;;5050731;28;20049;-83
2023/05/05 09:02:45;;;;;;;2.30;0.98;;;34.00;51.20;;;;;;5056686;28;20187;-86
2023/05/05 09:05:11;;;;;;;4.22;1.85;;;;;;;;;;5051273;28;20112;-82
2023/05/05 09:07:40;;;;;;;3.15;1.20;;;;;;;;;;5068792;28;20029;-81
2023/05/05 09:10:07;;;;;;;3.20;1.50;;;31.80;55.80;;;;;;5064871;28;20506;-81
2023/05/05 09:12:33;;;;;;;7.07;1.88;;;;;;;;;;5049714;28;20080;-83
2023/05/05 09:15:02;;;;;;;6.00;1.70;;;29.50;78.00;;;;;;5048479;28;20056;-84
2023/05/05 09:17:28;;;;;;;2.58;1.17;;;;;;;;;;5038460;28;20033;-83
2023/05/05 09:20:02;;;;;;;4.07;1.52;;;28.60;59.50;;;;;;5044060;28;20510;-82
2023/05/05 09:22:45;;;;;;;1.63;0.95;;;28.00;61.60;;;;;;5039454;28;20049;-83
2023/05/05 09:25:15;;;;;;;2.47;1.40;;;26.80;66.00;;;;;;5045394;28;20497;-84
2023/05/05 09:27:41;;;;;;;3.00;1.27;;;;;;;;;;5047801;28;20029;-81
2023/05/05 09:30:08;;;;;;;2.10;1.40;;;;;;;;;;5049846;28;20040;-82
2023/05/05 09:32:48;;;;;;;2.13;1.23;;;25.40;66.70;;;;;;5048790;28;20103;-83
2023/05/05 09:35:14;;;;;;;1.95;1.35;;;;;;;;;;5039000;28;20037;-82
2023/05/05 09:37:40;;;;;;;4.90;1.42;;;;;;;;;;5044201;28;20104;-81
2023/05/05 09:40:08;;;;;;;5.43;1.90;;;;;;;;;;5042365;28;20065;-82
2023/05/05 09:42:35;;;;;;;5.72;1.45;;;25.60;91.10;;;;;;5030089;28;20119;-84
2023/05/05 09:45:01;;;;;;;3.42;1.48;;;;;;;;;;5042377;28;20057;-80
2023/05/05 09:47:35;;;;;;;4.72;2.15;;;25.70;71.80;;;;;;5041315;28;20091;-83
2023/05/05 09:50:01;;;;;;;4.72;1.80;;;;;;;;;;5046753;28;20038;-82
2023/05/05 09:52:27;;;;;;;2.33;1.60;;;;;;;;;;5044141;28;20060;-83
2023/05/05 09:54:56;;;;;;;12.68;2.60;;;;;;;;;;5044323;28;20029;-83
2023/05/05 09:57:29;;;;;;;7.45;2.30;;;;;;;;;;5044054;28;20055;-81
2023/05/05 09:59:56;;;;;;;;;;;25.20;77.90;;;;;;5047930;28;20033;-82
2023/05/05 10:02:29;;;;;;;4.30;1.60;;;;;;;;;;5045138;28;19921;-80
2023/05/05 10:05:20;;;;;;;4.70;2.08;;;25.40;77.90;;;;;;5048764;28;20021;-79
2023/05/05 10:07:47;;;;;;;3.80;1.52;;;;;;;;;;5044642;28;20133;-81
2023/05/05 10:10:15;;;;;;;8.30;2.15;;;25.00;79.70;;;;;;5050492;28;20048;-80
2023/05/05 10:12:41;;;;;;;3.88;1.48;;;;;;;;;;5042874;28;20029;-80
2023/05/05 10:15:08;;;;;;;3.92;2.15;;;;;;;;;;5045747;28;20386;-81
2023/05/05 10:17:46;;;;;;;4.50;2.65;;;25.80;78.30;;;;;;5042924;28;20029;-81
2023/05/05 10:20:13;;;;;;;3.42;2.17;;;25.80;79.00;;;;;;5043605;28;20044;-81
2023/05/05 10:22:45;;;;;;;8.68;2.60;;;25.90;78.30;;;;;;5045300;28;20124;-81
2023/05/05 10:25:12;;;;;;;9.43;2.63;;;25.80;76.90;;;;;;5039616;28;20021;-81
2023/05/05 10:27:43;;;;;;;5.40;2.55;;;25.80;79.40;;;;;;5037276;28;20494;-81
2023/05/05 10:30:13;;;;;;;3.88;2.28;;;;;;;;;;5047158;28;20375;-82
2023/05/05 10:32:53;;;;;;;4.45;1.77;;;25.50;76.80;;;;;;5043903;28;20033;-81
2023/05/05 10:35:23;;;;;;;5.68;2.95;;;;;;;;;;5044442;28;20357;-80
2023/05/05 10:37:49;;;;;;;4.90;1.92;;;;;;;;;;5037595;28;20036;-82
2023/05/05 10:40:16;;;;;;;6.78;2.47;;;;;;;;;;5047144;28;20048;-81
2023/05/05 10:42:42;;;;;;;3.03;1.50;;;25.50;90.60;;;;;;5031619;28;20056;-82
2023/05/05 10:45:08;;;;;;;6.10;2.35;;;;;;;;;;5042098;28;20021;-80
2023/05/05 10:47:36;;;;;;;7.53;2.20;;;25.10;84.00;;;;;;5032972;28;20049;-82
2023/05/05 10:50:16;;;;;;;2.92;1.75;;;25.10;76.80;;;;;;5047496;28;20029;-82
2023/05/05 10:52:42;;;;;;;3.08;1.80;;;;;;;;;;5044201;28;20033;-80
2023/05/05 10:55:08;;;;;;;3.38;1.85;;;;;;;;;;5043607;28;20025;-81
2023/05/05 10:57:36;;;;;;;4.32;1.98;;;;;;;;;;5038353;28;20040;-80
2023/05/05 11:00:03;;;;;;;3.92;1.70;;;;;;;;;;5039890;28;20032;-82
2023/05/05 11:02:30;;;;;;;3.63;1.80;;;;;;;;;;5039108;28;20045;-83
2023/05/05 11:05:16;;;;;;;7.57;1.70;;;24.30;78.80;;;;;;5041399;28;20561;-83
2023/05/05 11:07:46;;;;;;;9.68;2.58;;;23.70;91.00;;;;;;5042229;28;20032;-83
2023/05/05 11:10:13;;;;;;;6.45;2.42;;;;;;;;;;5043716;28;20107;-83
2023/05/05 11:12:51;;;;;;;3.17;1.63;;;;;;;;;;5038419;28;20033;-83
2023/05/05 11:15:23;;;;;;;4.38;2.15;;;;;;;;;;5033525;28;20064;-81
2023/05/05 11:17:49;;;;;;;3.20;1.83;;;;;;;;;;5039450;28;20029;-80
2023/05/05 11:20:15;;;;;;;5.25;3.25;;;;;;;;;;5040823;28;20280;-83
2023/05/05 11:23:01;;;;;;;5.13;2.10;;;24.60;80.60;;;;;;5033293;28;20040;-82
2023/05/05 11:25:35;;;;;;;6.82;2.53;;;24.60;80.00;;;;;;5039630;28;20513;-83
2023/05/05 11:28:16;;;;;;;9.00;2.90;;;24.90;85.90;;;;;;5042939;28;20028;-82
2023/05/05 11:31:16;;;;;;;10.32;2.47;;;25.10;84.50;;;;;;5038913;28;20418;-83
2023/05/05 11:33:42;;;;;;;6.32;3.05;;;;;;;;;;5037150;28;20024;-81
2023/05/05 11:36:13;;;;;;;3.45;1.83;;;25.00;84.50;;;;;;5034434;28;20033;-83
2023/05/05 11:38:51;;;;;;;6.03;3.53;;;24.50;83.40;;;;;;5042655;28;20075;-83
2023/05/05 11:41:46;;;;;;;6.20;2.33;;;24.70;86.70;;;;;;5045240;28;20065;-82
2023/05/05 11:44:16;;;;;;;4.88;1.85;;;23.30;83.90;;;;;;5042060;28;20053;-83
2023/05/05 11:47:04;;;;;;;7.97;2.47;;;24.30;86.70;;;;;;5045530;28;20026;-80
2023/05/05 11:49:30;;;;;;;8.52;5.40;;;;;;;;;;5038302;28;20040;-81
2023/05/05 11:51:59;;;;;;;5.13;3.28;;;23.70;96.80;;;;;;5046609;28;20534;-83
2023/05/05 11:54:25;;;;;;;3.67;1.75;;;;;;;;;;5044109;28;20025;-81
2023/05/05 11:56:55;;;;;;;2.92;1.35;;;;;;;;;;5038688;28;20501;-82
2023/05/05 11:59:21;;;;;;;3.38;1.75;;;;;;;;;;5044454;28;20029;-80
2023/05/05 12:01:47;;;;;;;3.80;2.08;;;;;;;;;;5054423;28;20344;-84
2023/05/05 12:04:15;;;;;;;3.22;2.03;;;;;;;;;;5054524;28;20033;-84
2023/05/05 12:06:41;;;;;;;1.15;1.00;;;;;;;;;;5042846;28;20028;-82
2023/05/05 12:09:14;;;;;;;7.47;1.48;;;;;;;;;;5046882;28;20099;-82
2023/05/05 12:11:49;;;;;;;3.92;1.38;;;;;;;;;;5037635;28;20087;-82
2023/05/05 12:14:15;;;;;;;4.25;1.92;;;;;;;;;;5042403;28;20505;-80
2023/05/05 12:17:02;;;;;;;3.03;2.00;;;22.60;91.70;;;;;;5046352;28;20026;-81
2023/05/05 12:19:31;;;;;;;1.88;1.25;;;;;;;;;;5036461;28;20024;-78
2023/05/05 12:21:57;;;;;;;6.68;1.33;;;;;;;;;;5040062;28;20122;-83
2023/05/05 12:24:23;;;;;;;2.85;1.08;;;;;;;;;;5044496;28;20037;-81
2023/05/05 12:26:50;;;;;;;2.75;0.95;;;;;;;;;;5039634;28;20303;-81
2023/05/05 12:29:34;;;;;;;2.70;0.60;;;23.20;86.30;;;;;;5043019;28;20037;-80
2023/05/05 12:32:00;;;;;;;1.13;0.60;;;;;;;;;;5045335;28;20425;-80
2023/05/05 12:34:26;;;;;;;1.80;0.65;;;;;;;;;;5047856;28;20037;-81
2023/05/05 12:36:52;;;;;;;3.95;0.70;;;21.90;85.90;;;;;;5041634;28;20017;-81
2023/05/05 12:39:18;;;;;;;0.60;0.40;;;;;;;;;;5047803;28;20082;-82
2023/05/05 12:41:44;;;;;;;0.98;0.40;;;;;;;;;;5042971;28;20025;-81
2023/05/05 12:44:10;;;;;;;0.63;0.40;;;;;;;;;;5039203;28;20660;-81
2023/05/05 12:46:46;;;;;;;1.02;0.50;;;21.60;88.80;;;;;;5042795;28;20032;-82
2023/05/05 12:49:12;;;;;;;1.00;0.45;;;;;;;;;;5048235;28;20044;-84
2023/05/05 12:51:38;;;;;;;1.27;0.40;;;;;;;;;;5046475;28;20021;-82
2023/05/05 12:54:05;;;;;;;4.28;0.50;;;21.10;93.80;;;;;;5044222;28;20021;-83
2023/05/05 12:56:35;;;;;;;1.88;0.63;;;;;;;;;;5039986;28;20438;-81
2023/05/05 12:59:02;;;;;;;1.10;0.75;;;22.60;90.20;;;;;;5040778;28;20398;-82
2023/05/05 13:01:29;;;;;;;2.75;0.40;;;;;;;;;;5044707;28;20083;-83
2023/05/05 13:04:13;;;;;;;8.50;1.25;;;22.10;85.40;;;;;;5050904;28;20033;-79
2023/05/05 13:06:43;;;;;;;6.55;2.03;;;;;;;;;;5062711;28;20032;-79
2023/05/05 13:09:22;;;;;;;7.47;0.80;;;;;;;;;;5056776;28;20029;-80
2023/05/05 13:11:47;;;;;;;1.50;0.68;;;;;;;;;;5052785;28;20029;-81
2023/05/05 13:14:13;;;;;;;1.25;0.65;;;;;;;;;;5048792;28;20025;-82
2023/05/05 13:16:40;;;;;;;1.15;0.65;;;;;;;;;;5042404;28;20411;-82
2023/05/05 13:19:06;;;;;;;1.20;0.60;;;;;;;;;;5045046;28;20033;-81
2023/05/05 13:21:32;;;;;;;1.00;0.40;;;;;;;;;;5061423;28;20029;-81
2023/05/05 13:23:58;;;;;;;1.30;0.60;;;;;;;;;;5052778;28;20429;-80
2023/05/05 13:26:24;;;;;;;3.42;0.35;;;;;;;;;;5044654;28;20021;-80
2023/05/05 13:28:50;;;;;;;0.50;0.32;;;24.90;93.50;;;;;;5033095;28;20029;-82
2023/05/05 13:31:16;;;;;;;1.05;0.40;;;;;;;;;;5034473;28;20032;-81
2023/05/05 13:33:42;;;;;;;2.55;0.55;;;;;;;;;;5036703;28;20479;-82
2023/05/05 13:36:08;;;;;;;3.15;0.30;;;;;;;;;;5029024;28;20024;-80
2023/05/05 13:38:35;;;;;;;2.70;0.50;;;;;;;;;;5039102;28;20029;-83
2023/05/05 13:41:01;;;;;;;0.65;0.30;;;;;;;;;;5020466;28;20036;-79
2023/05/05 13:43:27;;;;;;;3.72;0.30;;;;;;;;;;5036111;28;20029;-82
2023/05/05 13:45:53;;;;;;;0.52;0.25;;;;;;;;;;5016312;28;20055;-82
2023/05/05 13:48:19;;;;;;;0.88;0.30;;;;;;;;;;5017491;28;20036;-79
2023/05/05 13:50:46;;;;;;;0.80;0.30;;;;;;;;;;5020090;28;21357;-81
2023/05/05 13:53:12;;;;;;;0.60;0.30;;;;;;;;;;5022897;28;20098;-82
2023/05/05 13:55:37;;;;;;;0.85;0.30;;;;;;;;;;5023989;28;20032;-82
2023/05/05 13:58:03;;;;;;;1.77;0.40;;;;;;;;;;5018431;28;20035;-81
2023/05/05 14:00:30;;;;;;;0.95;0.40;;;;;;;;;;5031947;28;20083;-81
2023/05/05 14:02:56;;;;;;;2.20;0.40;;;;;;;;;;5032111;28;20255;-84
2023/05/05 14:05:22;;;;;;;2.03;0.30;;;;;;;;;;5019557;28;20424;-82
2023/05/05 14:07:48;;;;;;;1.58;0.38;;;;;;;;;;5030237;28;20029;-81
2023/05/05 14:10:14;;;;;;;0.90;0.30;;;;;;;;;;5030040;28;20120;-81
2023/05/05 14:12:40;;;;;;;1.35;0.20;;;;;;;;;;5033776;28;20029;-81
2023/05/05 14:15:06;;;;;;;1.02;0.43;;;;;;;;;;5036574;28;20044;-82
2023/05/05 14:17:32;;;;;;;1.90;0.30;;;;;;;;;;5035367;28;20056;-83
2023/05/05 14:19:58;;;;;;;0.43;0.20;;;;;;;;;;5027504;28;20474;-80
2023/05/05 14:22:25;;;;;;;2.08;0.20;;;;;;;;;;5027988;28;20406;-82
2023/05/05 14:24:51;;;;;;;2.50;0.40;;;;;;;;;;5026800;28;20017;-80
2023/05/05 14:27:17;;;;;;;0.52;0.20;;;;;;;;;;5032738;28;20090;-79
2023/05/05 14:29:42;;;;;;;2.65;0.20;;;25.90;83.70;;;;;;5021749;28;20021;-81
2023/05/05 14:32:08;;;;;;;1.10;0.30;;;;;;;;;;5041642;28;20159;-80
2023/05/05 14:34:34;;;;;;;0.80;0.30;;;;;;;;;;5030673;28;20033;-80